Time;durP1;ratioP1;P1;durP2;ratioP2;P2;SDS_P1;SDS_P2;PMS_P1;PMS_P2;Temp;Humidity;BMP_temperature;BMP_pressure;BME280_temperature;BME280_humidity;BME280_pressure;Samples;Min_cycle;Max_cycle;Signal;HPM_P1;HPM_P2
2022/04/04 00:01:05;;;;;;;69.10;39.85;;;179.60;1587.20;;;;;;5096241;28;20498;-59
2022/04/04 00:03:31;;;;;;;67.35;38.38;;;179.50;1612.80;;;;;;5096116;28;20066;-60
2022/04/04 00:05:57;;;;;;;52.53;29.85;;;179.50;1612.80;;;;;;5096847;28;20028;-64
2022/04/04 00:08:23;;;;;;;45.60;28.23;;;179.40;1587.20;;;;;;5096059;28;20082;-63
2022/04/04 00:10:49;;;;;;;40.33;24.33;;;179.30;1612.80;;;;;;5095855;28;20048;-64
2022/04/04 00:13:14;;;;;;;34.70;20.73;;;179.30;1587.20;;;;;;5078058;28;20031;-59
2022/04/04 00:15:41;;;;;;;31.85;19.33;;;179.30;1612.80;;;;;;5095975;28;20031;-58
2022/04/04 00:18:10;;;;;;;31.50;18.38;;;179.30;1587.20;;;;;;5096198;28;20077;-65
2022/04/04 00:20:36;;;;;;;31.88;17.85;;;179.30;1587.20;;;;;;5096224;28;20032;-65
2022/04/04 00:23:02;;;;;;;33.47;18.40;;;179.30;1612.80;;;;;;5095553;28;20048;-57
2022/04/04 00:25:29;;;;;;;39.13;21.00;;;179.30;1587.20;;;;;;5095857;28;20530;-64
2022/04/04 00:27:54;;;;;;;36.20;20.75;;;179.20;1587.20;;;;;;5095528;28;20099;-65
2022/04/04 00:30:20;;;;;;;33.58;18.60;;;179.20;1587.20;;;;;;5095660;28;20158;-64
2022/04/04 00:32:46;;;;;;;26.15;16.42;;;179.20;1587.20;;;;;;5095150;28;20370;-61
2022/04/04 00:35:12;;;;;;;23.27;14.45;;;179.20;1587.20;;;;;;5096024;28;20032;-62
2022/04/04 00:37:37;;;;;;;25.13;13.90;;;154.50;1587.20;;;;;;5095716;28;20020;-61
2022/04/04 00:40:05;;;;;;;22.15;12.82;;;154.50;1587.20;;;;;;5095624;28;20024;-58
2022/04/04 00:42:32;;;;;;;18.27;11.60;;;154.50;1587.20;;;;;;5095651;28;20077;-65
2022/04/04 00:44:57;;;;;;;20.17;10.75;;;154.40;1587.20;;;;;;5095439;28;20355;-65
2022/04/04 00:47:23;;;;;;;16.23;11.90;;;154.40;1587.20;;;;;;5095631;28;20065;-65
2022/04/04 00:49:49;;;;;;;19.63;12.73;;;154.30;1587.20;;;;;;5095318;28;20029;-61
2022/04/04 00:52:15;;;;;;;20.17;13.30;;;154.30;1587.20;;;;;;5094851;28;20473;-64
2022/04/04 00:54:41;;;;;;;21.48;15.45;;;154.30;1587.20;;;;;;5095503;28;20048;-65
2022/04/04 00:57:07;;;;;;;25.65;17.17;;;154.20;1587.20;;;;;;5095196;28;20051;-58
2022/04/04 00:59:33;;;;;;;31.98;20.15;;;154.20;1612.80;;;;;;5095287;28;20481;-65
2022/04/04 01:01:59;;;;;;;34.83;22.50;;;154.30;1587.20;;;;;;5095256;28;20091;-64
2022/04/04 01:04:25;;;;;;;32.10;19.35;;;154.20;1587.20;;;;;;5094872;28;20031;-59
2022/04/04 01:06:51;;;;;;;26.23;16.60;;;154.20;1587.20;;;;;;5095177;28;20106;-59
2022/04/04 01:09:17;;;;;;;20.52;14.95;;;154.30;1587.20;;;;;;5094831;28;20433;-65
2022/04/04 01:12:09;;;;;;;20.63;13.75;;;154.20;1587.20;;;;;;5095303;28;20028;-65
2022/04/04 01:14:41;;;;;;;17.05;11.93;;;154.20;1561.60;;;;;;5094572;28;20473;-58
2022/04/04 01:17:08;;;;;;;17.73;11.25;;;154.30;1587.20;;;;;;5094624;28;20032;-65
2022/04/04 01:19:34;;;;;;;17.25;10.43;;;154.20;1561.60;;;;;;5094778;28;20501;-58
2022/04/04 01:22:04;;;;;;;15.57;10.82;;;154.20;1587.20;;;;;;5094526;28;20052;-57
2022/04/04 01:24:30;;;;;;;17.73;11.43;;;154.20;1587.20;;;;;;5094713;28;20021;-63
2022/04/04 01:26:55;;;;;;;24.77;13.52;;;154.20;1561.60;;;;;;5094258;28;20027;-63
2022/04/04 01:29:21;;;;;;;23.75;12.98;;;154.10;1587.20;;;;;;5094597;28;20035;-58
2022/04/04 01:31:48;;;;;;;18.80;11.80;;;154.10;1561.60;;;;;;5094330;28;20031;-58
2022/04/04 01:34:14;;;;;;;28.85;12.68;;;154.00;1561.60;;;;;;5095151;28;20039;-58
2022/04/04 01:36:40;;;;;;;24.08;11.18;;;153.90;1612.80;;;;;;5094333;28;20040;-58
2022/04/04 01:39:05;;;;;;;25.92;11.70;;;153.90;1587.20;;;;;;5094535;28;20077;-58
2022/04/04 01:41:31;;;;;;;26.83;11.35;;;153.90;1612.80;;;;;;5094344;28;20115;-58
2022/04/04 01:43:57;;;;;;;20.73;11.00;;;153.90;1638.40;;;;;;5093375;28;20028;-58
2022/04/04 01:46:29;;;;;;;19.85;11.55;;;153.80;1587.20;;;;;;5094295;28;20035;-58
2022/04/04 01:48:56;;;;;;;18.38;11.68;;;153.70;1587.20;;;;;;5093955;28;20043;-61
2022/04/04 01:51:22;;;;;;;29.33;13.68;;;153.60;1587.20;;;;;;5094241;28;20024;-57
2022/04/04 01:53:48;;;;;;;21.75;13.75;;;128.90;1587.20;;;;;;5094063;28;20050;-61
2022/04/04 01:56:15;;;;;;;22.95;14.02;;;128.90;1868.80;;;;;;5093687;28;20043;-58
2022/04/04 01:58:41;;;;;;;25.48;15.10;;;153.60;1715.20;;;;;;5094225;28;20077;-59
2022/04/04 02:01:16;;;;;;;23.60;14.55;;;153.60;1664.00;;;;;;5094272;28;20024;-58
2022/04/04 02:03:44;;;;;;;25.65;18.10;;;153.70;1638.40;;;;;;5094116;28;20107;-57
2022/04/04 02:06:10;;;;;;;36.42;21.65;;;153.70;1612.80;;;;;;5094014;28;20028;-57
2022/04/04 02:08:36;;;;;;;37.53;20.45;;;153.60;1612.80;;;;;;5093880;28;20027;-58
2022/04/04 02:11:02;;;;;;;34.83;18.35;;;153.70;1612.80;;;;;;5094013;28;20069;-58
2022/04/04 02:13:28;;;;;;;33.20;19.17;;;153.70;1612.80;;;;;;5094017;28;20146;-58
2022/04/04 02:15:57;;;;;;;31.05;20.13;;;153.70;1612.80;;;;;;5093909;28;20036;-65
2022/04/04 02:18:23;;;;;;;25.58;17.50;;;153.70;1612.80;;;;;;5093696;28;20468;-65
2022/04/04 02:20:49;;;;;;;28.60;16.52;;;153.70;1612.80;;;;;;5093747;28;20028;-65
2022/04/04 02:23:19;;;;;;;43.25;27.58;;;153.60;1612.80;;;;;;5093570;28;20032;-63
2022/04/04 02:25:46;;;;;;;44.33;27.73;;;153.60;1612.80;;;;;;5094110;28;20024;-59
2022/04/04 02:28:13;;;;;;;34.92;21.88;;;153.70;1612.80;;;;;;5093679;28;20436;-58
2022/04/04 02:30:40;;;;;;;33.63;21.98;;;153.60;1612.80;;;;;;5093688;28;20054;-63
2022/04/04 02:33:06;;;;;;;36.00;23.25;;;153.60;1612.80;;;;;;5093779;28;20016;-57
2022/04/04 02:35:32;;;;;;;36.45;23.27;;;153.60;1612.80;;;;;;5093709;28;20032;-63
2022/04/04 02:37:57;;;;;;;39.05;23.50;;;153.60;1587.20;;;;;;5093539;28;20454;-57
2022/04/04 02:40:23;;;;;;;36.55;24.42;;;128.90;1612.80;;;;;;5093651;28;20028;-64
2022/04/04 02:42:49;;;;;;;36.63;24.10;;;153.60;1587.20;;;;;;5093724;28;20058;-58
2022/04/04 02:45:16;;;;;;;39.67;23.58;;;128.90;1612.80;;;;;;5093492;28;20454;-58
2022/04/04 02:47:42;;;;;;;33.90;21.15;;;128.90;1612.80;;;;;;5093382;28;20024;-65
2022/04/04 02:50:09;;;;;;;42.53;26.77;;;153.60;1612.80;;;;;;5093694;28;20092;-66
2022/04/04 02:52:35;;;;;;;46.10;26.80;;;128.80;1612.80;;;;;;5093484;28;20048;-64
2022/04/04 02:56:28;;;;;;;41.25;24.15;;;128.90;1587.20;;;;;;5095733;28;20381;-65
2022/04/04 02:57:47;;;;;;;32.90;20.50;;;128.90;1612.80;;;;;;5097379;28;20034;-66
2022/04/04 03:00:14;;;;;;;26.75;16.55;;;153.60;1587.20;;;;;;5097477;28;20107;-65
2022/04/04 03:02:40;;;;;;;23.55;14.77;;;128.90;1587.20;;;;;;5097510;28;20020;-58
2022/04/04 03:05:06;;;;;;;25.48;15.40;;;128.90;1612.80;;;;;;5097417;28;20541;-58
2022/04/04 03:07:32;;;;;;;33.60;18.83;;;128.90;1587.20;;;;;;5097350;28;20527;-57
2022/04/04 03:09:57;;;;;;;31.88;18.48;;;128.90;1587.20;;;;;;5097319;28;20375;-66
2022/04/04 03:12:23;;;;;;;37.00;19.83;;;153.60;1587.20;;;;;;5096850;28;20024;-64
2022/04/04 03:14:49;;;;;;;35.90;20.33;;;128.90;1587.20;;;;;;5097286;28;20406;-64
2022/04/04 03:17:15;;;;;;;62.80;34.55;;;128.90;1612.80;;;;;;5097084;28;20063;-65
2022/04/04 03:19:40;;;;;;;72.78;39.20;;;128.80;1587.20;;;;;;5097081;28;20024;-65
2022/04/04 03:22:07;;;;;;;72.07;40.08;;;128.80;1587.20;;;;;;5096936;28;20071;-64
2022/04/04 03:24:32;;;;;;;57.28;30.17;;;128.70;1587.20;;;;;;5096669;28;20020;-64
2022/04/04 03:26:58;;;;;;;45.78;23.45;;;128.70;1587.20;;;;;;5096893;28;20031;-58
2022/04/04 03:29:24;;;;;;;29.65;17.05;;;128.80;1587.20;;;;;;5096951;28;20381;-64
2022/04/04 03:31:50;;;;;;;21.77;13.30;;;128.70;1587.20;;;;;;5096829;28;20114;-64
2022/04/04 03:34:15;;;;;;;27.23;15.30;;;128.60;1612.80;;;;;;5096883;28;20108;-57
2022/04/04 03:36:41;;;;;;;21.73;15.25;;;128.60;1587.20;;;;;;5096751;28;20043;-57
2022/04/04 03:39:07;;;;;;;21.77;13.70;;;128.60;1561.60;;;;;;5096369;28;20021;-58
2022/04/04 03:41:33;;;;;;;20.33;12.60;;;128.50;1587.20;;;;;;5096739;28;20110;-58
2022/04/04 03:43:59;;;;;;;18.33;12.15;;;128.50;1587.20;;;;;;5096490;28;20048;-58
2022/04/04 03:46:25;;;;;;;18.92;11.93;;;128.40;1612.80;;;;;;5096526;28;20025;-59
2022/04/04 03:48:50;;;;;;;18.10;12.18;;;128.40;1612.80;;;;;;5096510;28;20028;-58
2022/04/04 03:51:16;;;;;;;20.00;11.40;;;128.40;1612.80;;;;;;5096471;28;20112;-63
2022/04/04 03:53:42;;;;;;;21.17;14.30;;;128.40;1638.40;;;;;;5096185;28;20024;-58
2022/04/04 03:56:08;;;;;;;29.77;19.40;;;128.20;1612.80;;;;;;5096107;28;20039;-64
2022/04/04 03:58:34;;;;;;;27.42;18.38;;;128.20;1612.80;;;;;;5096419;28;20043;-64
2022/04/04 04:00:59;;;;;;;32.97;24.48;;;128.20;1612.80;;;;;;5096282;28;20063;-58
2022/04/04 04:03:25;;;;;;;32.88;22.95;;;128.00;1638.40;;;;;;5088744;28;20032;-59
2022/04/04 04:06:11;;;;;;;27.08;18.83;;;128.10;1638.40;;;;;;5075041;28;20039;-67
2022/04/04 04:08:46;;;;;;;24.30;17.20;;;128.10;1612.80;;;;;;5085718;28;20535;-66
2022/04/04 04:11:14;;;;;;;23.70;14.20;;;128.10;1638.40;;;;;;5086102;28;20042;-66
2022/04/04 04:13:41;;;;;;;20.17;14.60;;;128.10;1612.80;;;;;;5084070;28;20066;-65
2022/04/04 04:16:13;;;;;;;19.88;13.30;;;128.00;1638.40;;;;;;5085334;28;20074;-66
2022/04/04 04:18:40;;;;;;;16.65;11.23;;;128.10;1638.40;;;;;;5086460;28;20044;-64
2022/04/04 04:21:09;;;;;;;17.48;11.00;;;128.10;1612.80;;;;;;5084720;28;20033;-67
2022/04/04 04:23:39;;;;;;;18.35;11.15;;;128.20;1638.40;;;;;;5083820;28;20116;-66
2022/04/04 04:26:06;;;;;;;20.30;12.15;;;128.20;1612.80;;;;;;5082978;28;20102;-59
2022/04/04 04:28:32;;;;;;;21.35;13.07;;;128.20;1612.80;;;;;;5075728;28;20025;-64
2022/04/04 04:30:59;;;;;;;28.35;16.05;;;128.10;1612.80;;;;;;5065760;28;20123;-61
2022/04/04 04:33:25;;;;;;;36.08;20.67;;;128.20;1638.40;;;;;;5091462;28;20028;-63
2022/04/04 04:35:51;;;;;;;55.47;36.22;;;128.10;1638.40;;;;;;5095018;28;20446;-58
2022/04/04 04:38:17;;;;;;;129.88;83.13;;;128.10;1638.40;;;;;;5095142;28;20020;-58
2022/04/04 04:40:43;;;;;;;223.57;118.85;;;128.00;1664.00;;;;;;5095261;28;20039;-67
2022/04/04 04:43:11;;;;;;;166.23;93.03;;;103.30;1638.40;;;;;;5095483;28;20028;-59
2022/04/04 04:45:37;;;;;;;136.32;75.90;;;103.30;1638.40;;;;;;5083094;28;20024;-61
2022/04/04 04:48:03;;;;;;;303.50;167.82;;;128.00;1664.00;;;;;;5085212;28;20081;-66
2022/04/04 04:50:29;;;;;;;517.00;293.65;;;103.20;1638.40;;;;;;5084629;28;20052;-66
2022/04/04 04:52:56;;;;;;;590.63;347.42;;;103.30;1664.00;;;;;;5075092;28;20024;-67
2022/04/04 04:55:24;;;;;;;478.38;280.00;;;128.00;1638.40;;;;;;5075551;28;20033;-59
2022/04/04 04:57:52;;;;;;;356.90;184.35;;;128.00;1664.00;;;;;;5087497;28;20025;-67
2022/04/04 05:00:22;;;;;;;215.27;107.68;;;128.10;1638.40;;;;;;5088803;28;20408;-64
2022/04/04 05:03:24;;;;;;;153.48;76.57;;;128.20;1638.40;;;;;;5071610;28;20371;-59
2022/04/04 05:05:38;;;;;;;88.75;48.95;;;128.20;1638.40;;;;;;5089467;28;20036;-67
2022/04/04 05:08:05;;;;;;;83.82;45.13;;;128.30;1638.40;;;;;;5093785;28;20122;-59
2022/04/04 05:10:31;;;;;;;78.82;43.58;;;128.20;1664.00;;;;;;5092768;28;20489;-63
2022/04/04 05:12:57;;;;;;;64.05;33.05;;;128.20;1638.40;;;;;;5075002;28;20063;-66
2022/04/04 05:15:23;;;;;;;56.17;29.33;;;128.20;1664.00;;;;;;5094362;28;20114;-67
2022/04/04 05:17:52;;;;;;;50.92;26.77;;;128.10;1664.00;;;;;;5092612;28;20048;-58
2022/04/04 05:20:19;;;;;;;48.97;25.85;;;128.10;1664.00;;;;;;5093560;28;20024;-58
2022/04/04 05:22:45;;;;;;;45.10;24.80;;;128.00;1689.60;;;;;;5092546;28;20056;-66
2022/04/04 05:25:11;;;;;;;55.90;26.40;;;128.20;1664.00;;;;;;5094078;28;20028;-64
2022/04/04 05:27:38;;;;;;;54.55;27.92;;;128.20;1689.60;;;;;;5094577;28;20116;-59
2022/04/04 05:30:05;;;;;;;47.83;23.77;;;128.30;1664.00;;;;;;5094255;28;20055;-60
2022/04/04 05:32:31;;;;;;;67.10;28.27;;;128.30;1664.00;;;;;;5094055;28;20032;-59
2022/04/04 05:34:57;;;;;;;55.05;26.55;;;128.30;1664.00;;;;;;5094189;28;20031;-60
2022/04/04 05:37:22;;;;;;;65.53;31.83;;;128.30;1664.00;;;;;;5094074;28;20092;-66
2022/04/04 05:39:48;;;;;;;81.10;28.65;;;128.40;1664.00;;;;;;5094115;28;20028;-66
2022/04/04 05:42:16;;;;;;;53.78;23.73;;;128.40;1689.60;;;;;;5094313;28;20027;-67
2022/04/04 05:44:41;;;;;;;55.40;22.90;;;128.40;1689.60;;;;;;5094012;28;20031;-66
2022/04/04 05:47:09;;;;;;;41.85;21.48;;;128.50;1689.60;;;;;;5094129;28;20091;-67
2022/04/04 05:49:35;;;;;;;46.58;20.10;;;128.50;1664.00;;;;;;5094046;28;20042;-67
2022/04/04 05:52:01;;;;;;;87.40;27.15;;;128.60;1664.00;;;;;;5093822;28;20114;-67
2022/04/04 05:54:27;;;;;;;58.90;20.55;;;128.60;1664.00;;;;;;5094093;28;20042;-67
2022/04/04 05:56:52;;;;;;;112.05;75.00;;;128.50;1689.60;;;;;;5093842;28;20036;-67
2022/04/04 05:59:18;;;;;;;96.22;66.63;;;128.60;1689.60;;;;;;5093702;28;20103;-67
2022/04/04 06:01:44;;;;;;;69.15;47.42;;;128.60;1664.00;;;;;;5094167;28;20416;-67
2022/04/04 06:04:09;;;;;;;56.50;36.40;;;128.70;1689.60;;;;;;5093632;28;20060;-67
2022/04/04 06:06:35;;;;;;;50.65;28.15;;;128.80;1664.00;;;;;;5092271;28;20439;-66
2022/04/04 06:09:01;;;;;;;45.00;25.10;;;128.80;1664.00;;;;;;5083500;28;20059;-68
2022/04/04 06:11:27;;;;;;;31.20;19.88;;;128.80;1689.60;;;;;;5085067;28;20024;-66
2022/04/04 06:13:52;;;;;;;37.63;18.45;;;128.80;1689.60;;;;;;5075398;28;20115;-56
2022/04/04 06:16:18;;;;;;;37.60;19.73;;;128.90;1689.60;;;;;;5090514;28;20492;-59
2022/04/04 06:18:44;;;;;;;33.83;15.65;;;153.60;1689.60;;;;;;5079638;28;20030;-69
2022/04/04 06:21:09;;;;;;;42.70;17.42;;;153.60;1664.00;;;;;;5065076;28;20036;-69
2022/04/04 06:23:36;;;;;;;47.67;19.58;;;153.60;1664.00;;;;;;5073686;28;20027;-57
2022/04/04 06:26:05;;;;;;;51.38;20.13;;;153.70;1638.40;;;;;;5073491;28;20478;-57
2022/04/04 06:28:31;;;;;;;35.72;18.95;;;153.70;1664.00;;;;;;5073217;28;20048;-66
2022/04/04 06:30:58;;;;;;;33.25;17.27;;;153.80;1664.00;;;;;;5073521;28;20032;-58
2022/04/04 06:33:26;;;;;;;34.67;17.83;;;153.90;1664.00;;;;;;5073950;28;20074;-65
2022/04/04 06:35:52;;;;;;;26.85;14.93;;;154.00;1843.20;;;;;;5073589;28;20040;-57
2022/04/04 06:38:20;;;;;;;32.00;15.20;;;154.20;1664.00;;;;;;5073300;28;20462;-58
2022/04/04 06:40:49;;;;;;;27.25;15.43;;;154.20;1664.00;;;;;;5073545;28;20035;-57
2022/04/04 06:43:17;;;;;;;30.40;17.50;;;154.30;1638.40;;;;;;5054902;28;20398;-57
2022/04/04 06:45:43;;;;;;;24.50;17.77;;;154.40;1612.80;;;;;;5073554;28;20027;-57
2022/04/04 06:48:09;;;;;;;33.28;16.95;;;154.40;1612.80;;;;;;5073506;28;20020;-58
2022/04/04 06:50:35;;;;;;;30.98;16.92;;;154.50;1612.80;;;;;;5073271;28;20024;-67
2022/04/04 06:53:01;;;;;;;29.33;15.30;;;179.20;1638.40;;;;;;5072999;28;20028;-68
2022/04/04 06:55:27;;;;;;;24.38;15.50;;;179.30;1587.20;;;;;;5073051;28;20032;-57
2022/04/04 06:57:53;;;;;;;24.25;14.13;;;179.40;1638.40;;;;;;5073408;28;20157;-57
2022/04/04 07:00:19;;;;;;;25.08;15.23;;;179.50;1612.80;;;;;;5073367;28;20103;-68
2022/04/04 07:02:45;;;;;;;21.20;13.57;;;179.50;1561.60;;;;;;5073007;28;20028;-68
2022/04/04 07:05:11;;;;;;;24.08;13.50;;;179.60;1561.60;;;;;;5073319;28;20035;-58
2022/04/04 07:07:36;;;;;;;21.50;13.73;;;179.70;1561.60;;;;;;5073307;28;20020;-58
2022/04/04 07:10:03;;;;;;;22.48;13.75;;;179.80;1561.60;;;;;;5073204;28;20378;-57
2022/04/04 07:12:29;;;;;;;19.02;12.82;;;179.90;1536.00;;;;;;5073178;28;20545;-58
2022/04/04 07:14:56;;;;;;;23.52;13.57;;;180.00;1536.00;;;;;;5072708;28;20044;-58
2022/04/04 07:17:22;;;;;;;23.27;12.88;;;180.10;1510.40;;;;;;5073317;28;20107;-58
2022/04/04 07:19:48;;;;;;;20.33;12.10;;;204.80;1484.80;;;;;;5073290;28;20029;-58
2022/04/04 07:22:16;;;;;;;26.27;13.80;;;204.80;1459.20;;;;;;5072912;28;20055;-58
